Time;durP1;ratioP1;P1;durP2;ratioP2;P2;SDS_P1;SDS_P2;PMS_P1;PMS_P2;Temp;Humidity;BMP_temperature;BMP_pressure;BME280_temperature;BME280_humidity;BME280_pressure;Samples;Min_cycle;Max_cycle;Signal;HPM_P1;HPM_P2
2022/06/20 00:00:47;;;;;;;1.08;0.95;;;17.10;99.90;;;;;;4990351;28;20096;-77
2022/06/20 00:03:24;;;;;;;0.93;0.82;;;16.80;99.90;;;;;;4991287;28;20045;-77
2022/06/20 00:05:50;;;;;;;1.10;0.88;;;16.90;99.90;;;;;;4992598;28;20540;-77
2022/06/20 00:08:16;;;;;;;3.85;1.23;;;16.90;99.90;;;;;;4994746;28;20034;-77
2022/06/20 00:10:44;;;;;;;0.38;0.38;;;17.00;99.90;;;;;;4993561;28;20049;-76
2022/06/20 00:13:27;;;;;;;1.58;0.80;;;16.90;99.90;;;;;;4991312;28;20077;-76
2022/06/20 00:16:00;;;;;;;0.52;0.47;;;16.90;99.90;;;;;;4993539;28;20042;-77
2022/06/20 00:18:26;;;;;;;2.05;1.05;;;16.90;99.90;;;;;;4995822;28;20037;-76
2022/06/20 00:20:52;;;;;;;0.52;0.52;;;16.80;99.90;;;;;;4990294;28;20124;-76
2022/06/20 00:23:17;;;;;;;0.60;0.60;;;16.70;99.90;;;;;;4993331;28;20079;-76
2022/06/20 00:25:43;;;;;;;0.52;0.50;;;16.70;99.90;;;;;;4996814;28;20034;-76
2022/06/20 00:28:10;;;;;;;1.48;0.50;;;16.70;99.90;;;;;;4993963;28;20491;-77
2022/06/20 00:30:36;;;;;;;2.05;0.98;;;16.70;99.90;;;;;;4990285;28;20470;-76
2022/06/20 00:33:03;;;;;;;1.92;0.75;;;16.60;99.90;;;;;;4994302;28;20033;-76
2022/06/20 00:35:28;;;;;;;0.40;0.40;;;16.60;99.90;;;;;;4989683;28;20030;-77
2022/06/20 00:37:58;;;;;;;0.50;0.50;;;16.70;99.90;;;;;;4989590;28;20033;-76
2022/06/20 00:40:34;;;;;;;0.65;0.65;;;16.70;99.90;;;;;;5000420;28;20385;-76
2022/06/20 00:42:59;;;;;;;2.17;0.75;;;16.80;99.90;;;;;;4987764;28;20182;-76
2022/06/20 00:45:30;;;;;;;0.85;0.70;;;16.80;99.90;;;;;;4991124;28;20991;-76
2022/06/20 00:48:03;;;;;;;0.95;0.60;;;16.90;99.90;;;;;;4997421;28;20041;-76
2022/06/20 00:50:31;;;;;;;0.85;0.85;;;16.90;99.90;;;;;;4984837;28;20042;-76
2022/06/20 00:53:18;;;;;;;1.27;0.95;;;16.90;99.90;;;;;;4989526;28;20066;-76
2022/06/20 00:55:56;;;;;;;0.65;0.63;;;17.00;99.90;;;;;;4997579;28;20477;-76
2022/06/20 00:58:33;;;;;;;3.08;0.88;;;17.00;99.90;;;;;;4986898;28;20037;-76
2022/06/20 01:00:59;;;;;;;0.70;0.68;;;17.00;99.90;;;;;;4995446;28;20035;-76
2022/06/20 01:03:32;;;;;;;0.50;0.50;;;16.90;99.90;;;;;;4990746;28;20046;-77
2022/06/20 01:06:11;;;;;;;1.42;1.10;;;16.50;99.90;;;;;;4989434;28;20065;-76
2022/06/20 01:08:46;;;;;;;2.15;1.42;;;16.40;99.90;;;;;;4993090;28;20026;-76
2022/06/20 01:11:21;;;;;;;1.13;0.63;;;16.70;99.90;;;;;;4989026;28;20038;-76
2022/06/20 01:13:47;;;;;;;0.60;0.60;;;16.90;99.90;;;;;;4988129;28;20710;-76
2022/06/20 01:16:12;;;;;;;1.45;0.73;;;17.00;99.90;;;;;;4988451;28;20058;-76
2022/06/20 01:18:40;;;;;;;1.05;0.82;;;17.00;99.90;;;;;;5000374;28;20080;-76
2022/06/20 01:21:13;;;;;;;0.52;0.52;;;17.00;99.90;;;;;;4988610;28;20038;-77
2022/06/20 01:23:51;;;;;;;2.08;0.73;;;16.90;99.90;;;;;;4989381;28;20054;-77
2022/06/20 01:26:41;;;;;;;1.23;0.93;;;16.90;99.90;;;;;;4991585;28;20084;-76
2022/06/20 01:29:10;;;;;;;0.47;0.47;;;16.60;99.90;;;;;;4996337;28;20515;-76
2022/06/20 01:31:40;;;;;;;0.60;0.60;;;16.60;99.90;;;;;;4991226;28;20113;-76
2022/06/20 01:34:06;;;;;;;2.33;1.33;;;16.70;99.90;;;;;;4987772;28;20034;-76
2022/06/20 01:39:21;;;;;;;1.58;0.65;;;16.80;99.90;;;;;;4986820;28;20125;-76
2022/06/20 01:44:37;;;;;;;5.15;1.08;;;16.80;99.90;;;;;;4990842;28;20044;-76
2022/06/20 01:47:03;;;;;;;4.43;0.90;;;16.70;99.90;;;;;;4988096;28;20405;-77
2022/06/20 01:49:30;;;;;;;3.47;0.80;;;16.60;99.90;;;;;;4993237;28;20049;-75
2022/06/20 01:52:04;;;;;;;0.85;0.77;;;16.60;99.90;;;;;;4984039;28;20030;-76
2022/06/20 01:54:34;;;;;;;1.40;0.70;;;16.70;99.90;;;;;;4978746;28;20524;-76
2022/06/20 01:57:02;;;;;;;2.17;0.80;;;16.70;99.90;;;;;;4988039;28;20046;-76
2022/06/20 01:59:37;;;;;;;5.10;1.52;;;16.70;99.90;;;;;;4997229;28;20033;-76
2022/06/20 02:02:03;;;;;;;1.27;1.17;;;16.70;99.90;;;;;;4989223;28;20401;-77
2022/06/20 02:04:32;;;;;;;0.70;0.70;;;16.70;99.90;;;;;;4988277;28;20058;-77
2022/06/20 02:07:01;;;;;;;1.38;1.17;;;16.70;99.90;;;;;;4991234;28;20540;-77
2022/06/20 02:09:26;;;;;;;0.77;0.57;;;16.60;99.90;;;;;;4989893;28;20034;-76
2022/06/20 02:11:52;;;;;;;1.00;0.80;;;16.70;99.90;;;;;;4987102;28;20033;-76
2022/06/20 02:14:35;;;;;;;0.95;0.85;;;16.60;99.90;;;;;;4985697;28;20037;-76
2022/06/20 02:17:05;;;;;;;0.60;0.60;;;16.70;99.90;;;;;;4992970;28;20026;-76
2022/06/20 02:19:34;;;;;;;1.05;0.63;;;16.70;99.90;;;;;;4988706;28;20030;-76
2022/06/20 02:22:04;;;;;;;0.95;0.80;;;16.60;99.90;;;;;;4986985;28;20034;-76
2022/06/20 02:24:35;;;;;;;1.13;0.88;;;16.70;99.90;;;;;;4988618;28;20033;-77
2022/06/20 02:27:03;;;;;;;0.55;0.55;;;16.60;99.90;;;;;;4995062;28;20117;-76
2022/06/20 02:29:30;;;;;;;0.60;0.60;;;16.30;99.90;;;;;;4982997;28;20031;-77
2022/06/20 02:32:23;;;;;;;0.52;0.52;;;16.30;99.90;;;;;;4990085;28;20081;-76
2022/06/20 02:34:49;;;;;;;1.25;1.10;;;16.50;99.90;;;;;;4985670;28;20042;-77
2022/06/20 02:37:20;;;;;;;2.90;1.25;;;16.60;99.90;;;;;;4989512;28;20041;-76
2022/06/20 02:39:49;;;;;;;0.75;0.60;;;16.70;99.90;;;;;;4994001;28;20035;-75
2022/06/20 02:42:18;;;;;;;1.55;1.23;;;16.70;99.90;;;;;;4992677;28;20039;-75
2022/06/20 02:44:47;;;;;;;2.67;0.80;;;16.70;99.90;;;;;;4989051;28;20061;-75
2022/06/20 02:47:14;;;;;;;0.93;0.60;;;16.70;99.90;;;;;;4993689;28;20041;-76
2022/06/20 02:49:40;;;;;;;0.98;0.77;;;16.60;99.90;;;;;;4987897;28;20393;-75
2022/06/20 02:52:08;;;;;;;1.00;0.80;;;16.60;99.90;;;;;;4989115;28;20074;-76
2022/06/20 02:54:36;;;;;;;0.73;0.73;;;16.50;99.90;;;;;;4993017;28;20018;-75
2022/06/20 02:57:12;;;;;;;0.98;0.93;;;16.50;99.90;;;;;;4986098;28;20109;-75
2022/06/20 02:59:52;;;;;;;0.75;0.75;;;16.40;99.90;;;;;;4987943;28;20037;-75
2022/06/20 03:02:22;;;;;;;5.10;0.80;;;16.50;99.90;;;;;;4986487;28;20519;-75
2022/06/20 03:04:47;;;;;;;2.35;1.27;;;16.50;99.90;;;;;;4986263;28;20055;-75
2022/06/20 03:07:23;;;;;;;2.42;0.70;;;16.50;99.90;;;;;;4993375;28;20022;-75
2022/06/20 03:09:55;;;;;;;3.88;1.10;;;16.60;99.90;;;;;;4991929;28;20449;-75
2022/06/20 03:12:21;;;;;;;0.50;0.50;;;16.60;99.90;;;;;;4988830;28;20030;-75
2022/06/20 03:14:51;;;;;;;0.73;0.73;;;16.60;99.90;;;;;;4987844;28;20037;-75
2022/06/20 03:17:19;;;;;;;1.02;0.93;;;16.60;99.90;;;;;;4987327;28;20022;-75
2022/06/20 03:19:48;;;;;;;1.33;1.10;;;16.70;99.90;;;;;;4988574;28;20393;-75
2022/06/20 03:22:19;;;;;;;1.05;1.00;;;16.80;99.90;;;;;;4983870;28;20093;-75
2022/06/20 03:24:47;;;;;;;1.27;1.00;;;16.80;99.90;;;;;;4990435;28;20043;-75
2022/06/20 03:27:23;;;;;;;2.15;1.23;;;16.70;99.90;;;;;;4989135;28;20046;-75
2022/06/20 03:29:54;;;;;;;4.15;0.63;;;16.60;99.90;;;;;;4989283;28;20052;-75
2022/06/20 03:32:21;;;;;;;1.58;1.27;;;16.60;99.90;;;;;;4990956;28;20026;-75
2022/06/20 03:34:47;;;;;;;1.20;1.10;;;16.70;99.90;;;;;;4982708;28;20092;-76
2022/06/20 03:37:12;;;;;;;2.10;1.33;;;16.70;99.90;;;;;;4992335;28;20113;-76
2022/06/20 03:39:38;;;;;;;1.20;1.10;;;16.70;99.90;;;;;;4989055;28;20023;-76
2022/06/20 03:42:06;;;;;;;0.82;0.70;;;16.70;99.90;;;;;;4988207;28;20038;-76
2022/06/20 03:44:44;;;;;;;1.27;0.73;;;16.70;99.90;;;;;;4988094;28;20030;-76
2022/06/20 03:47:14;;;;;;;2.15;1.00;;;16.30;99.90;;;;;;4989201;28;20041;-76
2022/06/20 03:50:00;;;;;;;1.30;0.85;;;16.00;99.90;;;;;;4995349;28;20057;-75
2022/06/20 03:52:43;;;;;;;2.75;1.10;;;16.30;99.90;;;;;;4991999;28;20065;-75
2022/06/20 03:55:17;;;;;;;0.85;0.80;;;16.50;99.90;;;;;;4985657;28;20235;-76
2022/06/20 03:57:54;;;;;;;0.93;0.93;;;16.50;99.90;;;;;;5000111;28;20548;-76
2022/06/20 04:00:35;;;;;;;1.63;0.95;;;16.60;99.90;;;;;;4992025;28;20034;-76
2022/06/20 04:03:16;;;;;;;0.77;0.77;;;16.50;99.90;;;;;;4983835;28;20378;-75
2022/06/20 04:05:49;;;;;;;3.70;1.20;;;16.50;99.90;;;;;;4989340;28;20113;-75
2022/06/20 04:08:23;;;;;;;0.95;0.80;;;16.30;99.90;;;;;;4993939;28;20033;-75
2022/06/20 04:10:58;;;;;;;2.30;1.23;;;16.50;99.90;;;;;;4991153;28;20741;-76
2022/06/20 04:13:41;;;;;;;3.85;1.88;;;16.70;99.90;;;;;;4993595;28;20026;-75
2022/06/20 04:16:13;;;;;;;1.85;1.15;;;16.90;99.90;;;;;;4985813;28;20030;-75
2022/06/20 04:18:45;;;;;;;1.13;1.02;;;17.00;99.90;;;;;;4992554;28;20035;-76
2022/06/20 04:21:27;;;;;;;2.22;1.40;;;17.10;99.90;;;;;;4998680;28;20026;-76
2022/06/20 04:24:23;;;;;;;1.45;1.00;;;17.00;99.90;;;;;;4992558;28;20109;-75
2022/06/20 04:27:07;;;;;;;2.50;0.93;;;17.20;99.90;;;;;;4993042;28;20132;-76
2022/06/20 04:29:47;;;;;;;2.58;1.58;;;17.30;99.90;;;;;;4991454;28;20482;-75
2022/06/20 04:32:50;;;;;;;4.65;1.20;;;17.50;99.90;;;;;;5000134;28;20033;-75
2022/06/20 04:35:31;;;;;;;1.50;1.40;;;17.70;99.90;;;;;;4992354;28;20037;-75
2022/06/20 04:38:03;;;;;;;1.15;0.95;;;17.80;99.90;;;;;;4994742;28;20030;-76
2022/06/20 04:40:37;;;;;;;;;;;17.90;99.90;;;;;;4992945;28;20511;-76
2022/06/20 04:43:17;;;;;;;2.42;0.63;;;17.90;99.90;;;;;;4987546;28;19956;-75
2022/06/20 04:45:49;;;;;;;1.40;1.20;;;17.90;99.90;;;;;;4989124;28;20034;-76
2022/06/20 04:48:22;;;;;;;3.92;1.63;;;17.70;99.90;;;;;;4989210;28;20026;-76
2022/06/20 04:50:50;;;;;;;3.20;1.55;;;17.50;99.90;;;;;;4986875;28;20050;-75
2022/06/20 04:53:26;;;;;;;1.33;1.17;;;17.50;99.90;;;;;;5004567;28;20032;-76
2022/06/20 04:55:55;;;;;;;3.50;1.08;;;17.40;99.90;;;;;;4994715;28;20036;-76
2022/06/20 04:58:27;;;;;;;4.68;1.38;;;17.30;99.90;;;;;;4990616;28;20026;-76
2022/06/20 05:00:53;;;;;;;1.70;1.35;;;17.20;99.90;;;;;;4990558;28;20033;-76
2022/06/20 05:03:40;;;;;;;2.88;1.00;;;17.20;99.90;;;;;;4993458;28;20035;-76
2022/06/20 05:06:14;;;;;;;0.75;0.70;;;17.00;99.90;;;;;;4987270;28;20030;-76
2022/06/20 05:08:45;;;;;;;1.48;1.13;;;17.00;99.90;;;;;;4993205;28;20054;-75
2022/06/20 05:11:31;;;;;;;1.80;1.20;;;16.90;99.90;;;;;;4989050;28;20146;-76
2022/06/20 05:14:09;;;;;;;1.08;0.90;;;16.90;99.90;;;;;;4991632;28;20038;-76
2022/06/20 05:16:39;;;;;;;1.73;0.93;;;16.90;99.90;;;;;;4988922;28;20704;-76
2022/06/20 05:19:15;;;;;;;6.00;1.05;;;16.80;99.90;;;;;;4991414;28;20046;-75
2022/06/20 05:21:45;;;;;;;1.95;1.38;;;16.70;99.90;;;;;;4986032;28;20531;-76
2022/06/20 05:24:14;;;;;;;2.70;1.42;;;16.60;99.90;;;;;;4988328;28;20033;-76
2022/06/20 05:26:43;;;;;;;3.55;1.00;;;16.60;99.90;;;;;;4993234;28;20088;-75
2022/06/20 05:29:15;;;;;;;3.28;1.05;;;16.50;99.90;;;;;;4993532;28;20030;-76
2022/06/20 05:31:44;;;;;;;1.77;1.23;;;16.30;99.90;;;;;;4988707;28;20026;-76
2022/06/20 05:34:16;;;;;;;3.28;1.52;;;16.30;99.90;;;;;;4984692;28;20452;-75
2022/06/20 05:37:22;;;;;;;1.25;0.90;;;16.30;99.90;;;;;;4987883;28;20034;-76
2022/06/20 05:39:55;;;;;;;1.08;1.05;;;16.20;99.90;;;;;;4998607;28;20030;-76
2022/06/20 05:42:21;;;;;;;1.92;1.20;;;16.10;99.90;;;;;;4987979;28;20026;-76
2022/06/20 05:44:47;;;;;;;1.92;1.00;;;16.00;99.90;;;;;;4991628;28;20120;-76
2022/06/20 05:47:23;;;;;;;3.58;1.63;;;16.10;99.90;;;;;;4993670;28;20054;-77
2022/06/20 05:49:53;;;;;;;2.70;1.48;;;15.90;99.90;;;;;;4989811;28;20025;-76
2022/06/20 05:52:23;;;;;;;2.37;1.40;;;15.90;99.90;;;;;;4990650;28;20033;-76
2022/06/20 05:55:10;;;;;;;2.55;1.45;;;16.00;99.90;;;;;;4988113;28;20397;-76
2022/06/20 05:57:39;;;;;;;2.72;1.20;;;16.00;99.90;;;;;;5002549;28;20092;-77
2022/06/20 06:00:17;;;;;;;1.60;1.10;;;16.00;99.90;;;;;;4988087;28;20038;-76
2022/06/20 06:02:51;;;;;;;3.08;1.70;;;16.00;99.90;;;;;;4981630;28;20163;-78
2022/06/20 06:05:23;;;;;;;1.65;1.38;;;16.10;99.90;;;;;;4984317;28;20049;-79
2022/06/20 06:07:58;;;;;;;1.80;1.27;;;16.10;99.90;;;;;;4986378;28;20493;-78
2022/06/20 06:10:33;;;;;;;1.45;1.35;;;16.00;99.90;;;;;;4984349;28;20034;-79
2022/06/20 06:13:24;;;;;;;2.88;2.10;;;16.10;99.90;;;;;;4985902;28;20029;-81
2022/06/20 06:19:21;;;;;;;3.58;1.60;;;15.20;99.90;;;;;;4927417;29;20401;-78
2022/06/20 06:21:48;;;;;;;3.13;1.80;;;14.80;99.90;;;;;;4986694;28;20402;-80
2022/06/20 06:24:18;;;;;;;2.90;1.90;;;14.80;99.90;;;;;;4986489;28;20042;-78
2022/06/20 06:26:46;;;;;;;6.22;1.65;;;14.80;99.90;;;;;;4985922;28;20038;-78
2022/06/20 06:29:26;;;;;;;3.92;2.47;;;14.90;99.90;;;;;;4981435;28;20125;-79
2022/06/20 06:32:01;;;;;;;2.13;1.50;;;15.10;99.90;;;;;;4984196;28;20089;-79
2022/06/20 06:34:40;;;;;;;1.80;1.30;;;15.50;99.90;;;;;;4985742;28;20029;-79
2022/06/20 06:37:16;;;;;;;2.75;1.45;;;15.60;99.90;;;;;;4986535;28;20092;-79
2022/06/20 06:39:53;;;;;;;2.53;1.30;;;15.90;99.90;;;;;;4985014;28;20033;-79
2022/06/20 06:42:18;;;;;;;2.08;1.73;;;16.10;99.90;;;;;;4982653;28;20077;-79
2022/06/20 06:44:48;;;;;;;3.05;1.33;;;16.20;99.90;;;;;;4987696;28;20026;-79
2022/06/20 06:47:21;;;;;;;3.38;1.30;;;16.50;99.90;;;;;;4989673;28;20106;-81
2022/06/20 06:49:49;;;;;;;3.60;1.65;;;16.80;99.90;;;;;;4991572;28;20813;-77
2022/06/20 06:52:29;;;;;;;2.50;1.67;;;17.00;99.90;;;;;;4988454;28;20401;-76
2022/06/20 06:55:02;;;;;;;1.80;1.33;;;17.10;99.90;;;;;;4980567;28;20034;-78
2022/06/20 06:57:32;;;;;;;2.17;1.63;;;17.00;99.90;;;;;;4981560;28;20037;-79
2022/06/20 07:00:03;;;;;;;2.08;1.50;;;16.60;99.90;;;;;;4982173;28;20393;-78
2022/06/20 07:02:30;;;;;;;;;;;16.80;99.90;;;;;;4982954;28;20046;-77
2022/06/20 07:05:03;;;;;;;2.20;1.27;;;17.30;99.90;;;;;;4984405;28;19928;-77
2022/06/20 07:07:35;;;;;;;2.47;1.27;;;17.60;99.90;;;;;;4988142;28;20045;-77
2022/06/20 07:10:01;;;;;;;3.53;1.55;;;17.60;99.90;;;;;;4983369;28;20042;-74
2022/06/20 07:12:45;;;;;;;1.48;1.30;;;17.50;99.90;;;;;;4982807;28;20026;-78
2022/06/20 07:15:16;;;;;;;5.43;2.08;;;17.30;99.90;;;;;;4984562;28;20046;-76
2022/06/20 07:17:51;;;;;;;1.70;1.20;;;17.10;99.90;;;;;;4984099;28;20608;-77
2022/06/20 07:20:19;;;;;;;2.85;1.42;;;17.10;99.90;;;;;;4993557;28;20134;-77
2022/06/20 07:22:47;;;;;;;1.92;1.23;;;17.10;99.90;;;;;;4996300;28;20065;-77
2022/06/20 07:25:37;;;;;;;2.58;1.50;;;17.10;99.90;;;;;;4998496;28;20102;-76
2022/06/20 07:28:11;;;;;;;2.13;1.75;;;17.10;99.90;;;;;;4989467;28;20400;-76
2022/06/20 07:30:43;;;;;;;2.10;1.48;;;17.00;99.90;;;;;;4988049;28;20469;-84
2022/06/20 07:33:21;;;;;;;1.52;1.25;;;17.00;99.90;;;;;;4993515;28;20397;-81
2022/06/20 07:35:52;;;;;;;2.80;1.63;;;16.90;99.90;;;;;;4983023;28;20117;-78
2022/06/20 07:38:22;;;;;;;2.08;1.45;;;16.90;99.90;;;;;;4992189;28;20374;-76
2022/06/20 07:41:06;;;;;;;2.28;1.40;;;16.90;99.90;;;;;;4990001;28;20456;-82
2022/06/20 07:43:40;;;;;;;3.95;1.40;;;16.90;99.90;;;;;;4999561;28;20058;-82
2022/06/20 07:46:19;;;;;;;2.25;1.60;;;16.90;99.90;;;;;;4999168;28;20036;-84
2022/06/20 07:48:49;;;;;;;1.50;1.40;;;17.10;99.90;;;;;;5004027;28;20033;-82
2022/06/20 07:51:35;;;;;;;3.35;1.90;;;17.10;99.90;;;;;;4995697;28;20045;-84
2022/06/20 07:54:36;;;;;;;1.33;0.95;;;17.00;99.90;;;;;;5000836;28;20030;-81
2022/06/20 07:57:05;;;;;;;2.38;1.20;;;17.00;99.90;;;;;;4993007;28;20074;-80
2022/06/20 07:59:34;;;;;;;2.33;1.38;;;17.10;99.90;;;;;;4996202;28;20030;-79
2022/06/20 08:02:13;;;;;;;1.55;1.17;;;17.00;99.90;;;;;;4986309;28;20381;-80
2022/06/20 08:04:41;;;;;;;2.78;1.35;;;16.90;99.90;;;;;;4999561;28;20049;-80
2022/06/20 08:07:30;;;;;;;1.48;1.20;;;17.00;99.90;;;;;;4998003;28;20124;-79
2022/06/20 08:10:16;;;;;;;1.55;1.40;;;16.90;99.90;;;;;;5005416;28;20104;-79
2022/06/20 08:13:04;;;;;;;2.75;1.70;;;16.90;99.90;;;;;;4992486;28;20116;-79
2022/06/20 08:15:46;;;;;;;1.40;1.17;;;17.00;99.90;;;;;;4999780;28;20488;-80
2022/06/20 08:18:12;;;;;;;1.10;1.00;;;17.10;99.90;;;;;;4990786;28;20038;-76
2022/06/20 08:20:42;;;;;;;1.45;1.27;;;17.20;99.90;;;;;;4999949;28;20038;-84
2022/06/20 08:23:23;;;;;;;1.52;0.90;;;17.40;99.90;;;;;;4999010;28;20069;-78
2022/06/20 08:26:00;;;;;;;;;;;17.40;99.90;;;;;;4993814;28;20133;-77
2022/06/20 08:28:32;;;;;;;3.85;1.30;;;17.50;99.90;;;;;;4999178;28;19913;-79
2022/06/20 08:31:29;;;;;;;2.63;1.75;;;17.70;99.90;;;;;;4988288;28;20033;-78
2022/06/20 08:34:14;;;;;;;1.80;1.20;;;17.80;99.90;;;;;;4991586;28;20088;-79
2022/06/20 08:36:59;;;;;;;1.35;1.20;;;18.00;99.90;;;;;;4986365;28;20036;-78
2022/06/20 08:39:44;;;;;;;2.05;1.10;;;17.90;99.90;;;;;;4984613;28;20509;-78
2022/06/20 08:42:23;;;;;;;1.45;1.13;;;17.90;99.90;;;;;;4987123;28;20038;-76
2022/06/20 08:45:31;;;;;;;1.23;1.13;;;18.00;99.90;;;;;;4982298;28;20031;-78
2022/06/20 08:48:24;;;;;;;1.48;1.30;;;17.90;99.90;;;;;;4983383;28;20038;-78
2022/06/20 08:51:01;;;;;;;2.15;1.35;;;17.80;99.90;;;;;;5000096;28;20026;-76
2022/06/20 08:53:45;;;;;;;1.48;1.08;;;17.50;99.90;;;;;;5001357;28;20017;-78
2022/06/20 08:56:33;;;;;;;6.53;2.03;;;17.40;99.90;;;;;;4998484;28;20026;-79
2022/06/20 08:59:16;;;;;;;1.00;0.90;;;17.30;99.90;;;;;;4996328;28;20084;-77
2022/06/20 09:02:00;;;;;;;2.75;1.58;;;17.10;99.90;;;;;;5003084;28;20072;-75
2022/06/20 09:04:46;;;;;;;1.25;1.15;;;17.20;99.90;;;;;;4991719;28;20061;-76
2022/06/20 09:07:28;;;;;;;4.03;1.85;;;17.10;99.90;;;;;;4998862;28;20520;-75
2022/06/20 09:10:06;;;;;;;1.80;1.63;;;17.10;99.90;;;;;;4995252;28;20022;-74
2022/06/20 09:12:45;;;;;;;2.55;1.38;;;17.10;99.90;;;;;;4999862;28;20037;-77
2022/06/20 09:15:42;;;;;;;2.00;1.27;;;17.10;99.90;;;;;;4989694;28;20131;-78
2022/06/20 09:18:53;;;;;;;2.97;1.55;;;17.10;99.90;;;;;;4982793;28;20081;-80
2022/06/20 09:21:47;;;;;;;1.85;1.30;;;17.10;99.90;;;;;;5003237;28;20026;-82
2022/06/20 09:24:22;;;;;;;1.73;1.33;;;17.10;99.90;;;;;;4992423;28;21705;-80
2022/06/20 09:27:21;;;;;;;2.00;1.17;;;17.10;99.90;;;;;;4981821;28;20037;-82
2022/06/20 09:30:18;;;;;;;1.20;1.10;;;17.10;99.90;;;;;;4981592;28;20030;-87
2022/06/20 09:33:04;;;;;;;1.45;1.35;;;17.10;99.90;;;;;;4980362;28;20042;-79
2022/06/20 09:35:45;;;;;;;1.90;1.23;;;17.20;99.90;;;;;;4992800;28;20038;-81
2022/06/20 09:38:16;;;;;;;3.63;1.20;;;17.30;99.90;;;;;;4990574;28;20034;-79
2022/06/20 09:40:46;;;;;;;;;;;17.00;99.90;;;;;;4994005;28;20389;-79
2022/06/20 09:43:44;;;;;;;1.25;1.15;;;17.10;99.90;;;;;;4990436;28;20005;-78
2022/06/20 09:46:31;;;;;;;1.10;1.00;;;17.30;99.90;;;;;;4975690;28;20635;-81
2022/06/20 09:49:13;;;;;;;5.18;1.85;;;17.30;99.90;;;;;;4989225;28;20081;-80
2022/06/20 09:52:01;;;;;;;1.17;1.05;;;17.30;99.90;;;;;;4992848;28;20081;-78
2022/06/20 09:54:53;;;;;;;6.85;2.28;;;17.20;99.90;;;;;;4986957;28;20023;-78
2022/06/20 09:57:23;;;;;;;20.73;6.28;;;17.20;99.90;;;;;;4986913;28;20034;-80
2022/06/20 10:00:05;;;;;;;13.70;5.60;;;17.10;99.90;;;;;;4993839;28;20038;-81
2022/06/20 10:02:41;;;;;;;6.72;2.75;;;17.00;99.90;;;;;;4987005;28;20969;-82
2022/06/20 10:05:37;;;;;;;3.05;1.83;;;16.90;99.90;;;;;;4985104;28;20039;-85
2022/06/20 10:08:24;;;;;;;1.85;1.52;;;16.90;99.90;;;;;;4983818;28;20046;-86
2022/06/20 10:11:07;;;;;;;5.93;1.63;;;16.90;99.90;;;;;;4985914;28;20030;-84
2022/06/20 10:13:39;;;;;;;2.63;1.73;;;16.80;99.90;;;;;;4985827;28;20034;-76
2022/06/20 10:16:22;;;;;;;3.05;1.80;;;16.80;99.90;;;;;;4983094;28;20034;-83
2022/06/20 10:18:59;;;;;;;1.80;1.42;;;16.70;99.90;;;;;;4984524;28;20080;-80
2022/06/20 10:21:46;;;;;;;1.30;1.02;;;16.70;99.90;;;;;;4977082;28;20042;-77
2022/06/20 10:24:19;;;;;;;1.52;0.80;;;16.70;99.90;;;;;;4989204;28;20372;-78
2022/06/20 10:27:19;;;;;;;2.10;1.17;;;16.60;99.90;;;;;;4987783;28;20087;-75
2022/06/20 10:30:08;;;;;;;5.00;1.20;;;16.60;99.90;;;;;;4984527;28;20026;-76
2022/06/20 10:33:18;;;;;;;0.75;0.75;;;16.60;99.90;;;;;;4981934;28;20041;-76
2022/06/20 10:35:55;;;;;;;1.17;0.88;;;16.60;99.90;;;;;;4977315;28;20092;-77
2022/06/20 10:38:28;;;;;;;1.40;1.23;;;16.70;99.90;;;;;;4987617;28;20059;-78
2022/06/20 10:41:09;;;;;;;1.17;1.08;;;16.90;99.90;;;;;;4986182;28;20031;-78
2022/06/20 10:44:03;;;;;;;0.70;0.70;;;17.00;99.90;;;;;;4979196;28;20041;-78
2022/06/20 10:46:47;;;;;;;0.90;0.90;;;17.10;99.90;;;;;;4984387;28;20042;-78
2022/06/20 10:49:34;;;;;;;1.35;1.10;;;17.30;99.90;;;;;;4994056;28;20857;-79
2022/06/20 10:52:37;;;;;;;6.13;1.38;;;17.30;99.90;;;;;;4999868;28;20113;-78
2022/06/20 10:55:33;;;;;;;2.03;1.42;;;17.30;99.90;;;;;;4995460;28;20050;-78
2022/06/20 10:58:28;;;;;;;1.45;1.27;;;17.30;99.90;;;;;;4977575;28;20046;-78
2022/06/20 11:01:34;;;;;;;1.10;1.00;;;17.40;99.90;;;;;;4996010;28;20037;-78
2022/06/20 11:04:28;;;;;;;1.27;0.90;;;17.50;99.90;;;;;;4989810;28;20133;-77
2022/06/20 11:07:19;;;;;;;0.70;0.70;;;17.30;99.90;;;;;;5003136;28;20040;-77
2022/06/20 11:10:03;;;;;;;0.95;0.85;;;17.10;99.90;;;;;;4984337;28;20058;-77
2022/06/20 11:12:50;;;;;;;2.35;1.20;;;17.20;99.90;;;;;;4989435;28;20054;-76
2022/06/20 11:15:32;;;;;;;0.80;0.80;;;17.20;99.90;;;;;;4994228;28;20037;-77
2022/06/20 11:18:29;;;;;;;1.00;0.93;;;17.40;99.90;;;;;;5002740;28;20104;-76
2022/06/20 11:21:01;;;;;;;1.08;0.80;;;17.40;99.90;;;;;;4999121;28;20129;-77
2022/06/20 11:24:02;;;;;;;1.02;0.88;;;17.20;99.90;;;;;;4998259;28;20057;-77
2022/06/20 11:26:39;;;;;;;2.90;0.90;;;17.20;99.90;;;;;;4993545;28;20030;-77
2022/06/20 11:29:33;;;;;;;2.17;0.93;;;17.30;99.90;;;;;;4986457;28;20034;-77
2022/06/20 11:32:18;;;;;;;0.63;0.60;;;17.20;99.90;;;;;;4990343;28;20169;-77
2022/06/20 11:35:20;;;;;;;0.77;0.77;;;17.20;99.90;;;;;;4993342;28;20076;-77
2022/06/20 11:38:06;;;;;;;0.80;0.80;;;17.50;99.90;;;;;;5001105;28;20481;-77
2022/06/20 11:40:56;;;;;;;0.95;0.88;;;17.50;99.90;;;;;;4996958;28;20026;-78
2022/06/20 11:43:38;;;;;;;0.85;0.85;;;17.60;99.90;;;;;;4988951;28;20508;-77
2022/06/20 11:46:20;;;;;;;0.60;0.60;;;17.60;99.90;;;;;;4985094;28;20045;-78
2022/06/20 11:48:58;;;;;;;1.23;0.90;;;17.50;99.90;;;;;;4990910;28;20165;-83
2022/06/20 11:51:40;;;;;;;0.77;0.75;;;17.20;99.90;;;;;;4992943;28;20042;-79
2022/06/20 11:54:28;;;;;;;1.50;0.82;;;17.10;99.90;;;;;;4993352;28;20491;-80
2022/06/20 11:57:24;;;;;;;2.88;0.70;;;17.10;99.90;;;;;;4986190;28;20037;-80
2022/06/20 12:00:05;;;;;;;2.38;0.90;;;17.20;99.90;;;;;;4984751;28;20477;-80
2022/06/20 12:02:42;;;;;;;;;;;17.20;99.90;;;;;;5000969;28;20037;-80
2022/06/20 12:05:27;;;;;;;1.27;0.63;;;17.20;99.90;;;;;;5009500;28;20013;-79
2022/06/20 12:08:01;;;;;;;0.65;0.55;;;17.30;99.90;;;;;;5012585;28;20034;-81
2022/06/20 12:10:39;;;;;;;0.60;0.60;;;17.40;99.90;;;;;;5004349;28;20120;-81
2022/06/20 12:13:19;;;;;;;0.80;0.50;;;17.60;99.90;;;;;;5000055;28;20030;-80
2022/06/20 12:16:00;;;;;;;1.33;0.85;;;17.40;99.90;;;;;;5007813;28;20029;-80
2022/06/20 12:18:39;;;;;;;0.82;0.57;;;17.40;99.90;;;;;;5012032;28;20041;-80
2022/06/20 12:24:05;;;;;;;0.90;0.75;;;17.00;99.90;;;;;;5002135;28;20049;-82
2022/06/20 12:26:40;;;;;;;0.60;0.60;;;17.10;99.90;;;;;;5010873;28;20396;-81
2022/06/20 12:29:20;;;;;;;0.60;0.60;;;17.10;99.90;;;;;;5009307;28;20034;-79
2022/06/20 12:31:52;;;;;;;1.27;1.02;;;16.90;99.90;;;;;;4999873;28;20654;-79
2022/06/20 12:34:43;;;;;;;0.60;0.60;;;16.80;99.90;;;;;;5004817;28;20435;-80
2022/06/20 12:37:38;;;;;;;0.60;0.45;;;16.70;99.90;;;;;;5010460;28;20527;-80
2022/06/20 12:40:06;;;;;;;1.00;0.77;;;16.60;99.90;;;;;;4978882;28;20045;-79
2022/06/20 12:42:43;;;;;;;0.47;0.47;;;16.90;99.90;;;;;;4983568;28;20053;-78
2022/06/20 12:45:56;;;;;;;1.30;0.70;;;17.10;99.90;;;;;;4996796;28;20118;-80
2022/06/20 12:48:42;;;;;;;0.57;0.57;;;17.30;99.90;;;;;;5000670;28;20033;-75
2022/06/20 12:51:32;;;;;;;0.40;0.40;;;17.20;99.90;;;;;;4991644;28;20385;-77
2022/06/20 12:54:16;;;;;;;2.70;0.63;;;16.90;99.90;;;;;;4984693;28;20034;-77
2022/06/20 12:57:16;;;;;;;0.80;0.55;;;16.70;99.90;;;;;;4991266;28;20481;-75
2022/06/20 13:00:23;;;;;;;1.98;0.50;;;16.80;99.90;;;;;;5000831;28;20033;-76
2022/06/20 13:03:15;;;;;;;3.50;0.57;;;16.80;99.90;;;;;;4957800;28;20371;-76
2022/06/20 13:05:49;;;;;;;0.57;0.57;;;16.90;99.90;;;;;;4996232;28;20377;-76
2022/06/20 13:08:59;;;;;;;0.88;0.82;;;16.90;99.90;;;;;;4999635;28;20472;-77
2022/06/20 13:11:53;;;;;;;0.35;0.35;;;16.90;99.90;;;;;;4992926;28;20026;-77
2022/06/20 13:14:50;;;;;;;0.77;0.65;;;16.90;99.90;;;;;;4997712;28;20034;-81
2022/06/20 13:17:37;;;;;;;0.63;0.60;;;17.00;99.90;;;;;;4988753;28;20396;-78
2022/06/20 13:20:08;;;;;;;0.60;0.47;;;16.90;99.90;;;;;;4984682;28;20393;-78
2022/06/20 13:22:55;;;;;;;0.43;0.43;;;16.70;99.90;;;;;;4994521;28;20072;-77
2022/06/20 13:25:38;;;;;;;0.40;0.40;;;16.80;99.90;;;;;;4987634;28;20046;-78
2022/06/20 13:28:19;;;;;;;0.30;0.30;;;16.70;99.90;;;;;;4993494;28;20516;-77
2022/06/20 13:31:18;;;;;;;2.90;1.00;;;16.80;99.90;;;;;;4988898;28;20030;-78
2022/06/20 13:33:46;;;;;;;1.10;0.40;;;17.00;99.90;;;;;;4989832;28;20023;-77
2022/06/20 13:36:30;;;;;;;0.68;0.52;;;17.40;99.90;;;;;;4986007;28;20041;-78
2022/06/20 13:39:09;;;;;;;0.40;0.40;;;17.70;99.90;;;;;;4977510;28;20030;-78
2022/06/20 13:41:49;;;;;;;2.33;0.40;;;17.80;99.90;;;;;;4990817;28;20111;-77
2022/06/20 13:44:33;;;;;;;0.65;0.65;;;18.00;99.90;;;;;;4987304;28;20049;-77
2022/06/20 13:47:20;;;;;;;1.55;0.82;;;18.20;99.90;;;;;;4995815;28;20104;-79
2022/06/20 13:50:12;;;;;;;0.50;0.50;;;17.80;99.90;;;;;;4985373;28;20022;-79
2022/06/20 13:52:51;;;;;;;0.30;0.30;;;17.40;99.90;;;;;;4991905;28;20026;-79
2022/06/20 13:55:43;;;;;;;0.28;0.28;;;17.70;99.90;;;;;;4980292;28;20494;-79